Time;durP1;ratioP1;P1;durP2;ratioP2;P2;SDS_P1;SDS_P2;PMS_P1;PMS_P2;Temp;Humidity;BMP_temperature;BMP_pressure;BME280_temperature;BME280_humidity;BME280_pressure;Samples;Min_cycle;Max_cycle;Signal;HPM_P1;HPM_P2
2024/01/03 00:01:35;;;;;;;6.40;2.17;;;10.30;99.90;;;;;;5014953;28;20448;-87
2024/01/03 00:04:05;;;;;;;4.63;2.40;;;10.30;99.90;;;;;;5014952;28;20487;-87
2024/01/03 00:06:34;;;;;;;7.57;2.17;;;10.30;99.90;;;;;;5015222;28;20456;-88
2024/01/03 00:09:03;;;;;;;6.10;1.93;;;10.30;99.90;;;;;;5013889;28;20467;-87
2024/01/03 00:11:34;;;;;;;4.10;2.40;;;10.30;99.90;;;;;;5013485;28;20792;-87
2024/01/03 00:14:08;;;;;;;6.03;2.83;;;10.30;99.90;;;;;;5015205;28;20479;-87
2024/01/03 00:16:40;;;;;;;6.07;1.97;;;10.30;99.90;;;;;;5018157;28;20522;-88
2024/01/03 00:19:15;;;;;;;6.83;2.30;;;10.30;99.90;;;;;;5016398;28;20459;-87
2024/01/03 00:21:44;;;;;;;5.50;2.17;;;10.30;99.90;;;;;;5017113;28;20476;-87
2024/01/03 00:24:16;;;;;;;8.33;2.37;;;10.30;99.90;;;;;;5016539;28;20491;-87
2024/01/03 00:26:44;;;;;;;5.37;1.73;;;10.30;99.90;;;;;;5016774;28;20929;-87
2024/01/03 00:29:46;;;;;;;7.10;2.10;;;10.30;99.90;;;;;;5016328;28;20968;-87
2024/01/03 00:32:16;;;;;;;5.37;2.50;;;10.30;99.90;;;;;;5011769;28;20447;-87
2024/01/03 00:34:45;;;;;;;5.70;1.93;;;10.30;99.90;;;;;;5015777;28;20474;-87
2024/01/03 00:37:24;;;;;;;4.10;1.50;;;10.30;99.90;;;;;;5015919;28;20447;-87
2024/01/03 00:39:54;;;;;;;7.27;2.20;;;10.30;99.90;;;;;;5016342;28;20933;-88
2024/01/03 00:42:23;;;;;;;3.50;1.87;;;10.30;99.90;;;;;;5018244;28;20451;-87
2024/01/03 00:44:51;;;;;;;4.03;1.50;;;10.30;99.90;;;;;;5016851;28;20475;-87
2024/01/03 00:47:22;;;;;;;6.20;2.00;;;10.30;99.90;;;;;;5018175;28;20571;-87
2024/01/03 00:49:52;;;;;;;4.10;1.60;;;10.30;99.90;;;;;;5016481;28;20952;-87
2024/01/03 00:52:21;;;;;;;3.53;1.80;;;10.30;99.90;;;;;;5018242;28;20534;-88
2024/01/03 00:54:50;;;;;;;5.00;1.73;;;10.30;99.90;;;;;;5018885;28;20471;-87
2024/01/03 00:57:18;;;;;;;5.30;1.97;;;10.30;99.90;;;;;;5016111;28;20933;-87
2024/01/03 00:59:46;;;;;;;6.20;1.90;;;10.30;99.90;;;;;;5016503;28;20510;-87
2024/01/03 01:02:15;;;;;;;4.83;2.33;;;10.20;99.90;;;;;;5016094;28;20486;-87
2024/01/03 01:04:45;;;;;;;6.90;2.10;;;10.20;99.90;;;;;;5015775;28;20472;-87
2024/01/03 01:07:14;;;;;;;7.57;3.00;;;10.20;99.90;;;;;;5016053;28;20522;-87
2024/01/03 01:09:43;;;;;;;6.50;2.60;;;10.20;99.90;;;;;;5016550;28;20509;-87
2024/01/03 01:12:14;;;;;;;5.93;2.30;;;10.20;99.90;;;;;;5015898;28;20480;-87
2024/01/03 01:14:42;;;;;;;6.27;1.90;;;10.20;99.90;;;;;;5016314;28;20472;-87
2024/01/03 01:17:10;;;;;;;5.20;1.70;;;10.20;99.90;;;;;;5015487;28;20942;-87
2024/01/03 01:19:39;;;;;;;5.60;2.23;;;10.10;99.90;;;;;;5015629;28;20451;-87
2024/01/03 01:22:09;;;;;;;5.10;1.43;;;10.10;99.90;;;;;;5015959;28;20559;-87
2024/01/03 01:24:38;;;;;;;3.43;1.50;;;10.10;99.90;;;;;;5014524;28;20538;-87
2024/01/03 01:27:07;;;;;;;7.00;1.97;;;10.10;99.90;;;;;;5015414;28;20459;-86
2024/01/03 01:29:35;;;;;;;3.80;1.17;;;10.10;99.90;;;;;;5015663;28;20448;-88
2024/01/03 01:32:04;;;;;;;3.67;1.90;;;10.10;99.90;;;;;;5015840;28;20452;-87
2024/01/03 01:34:33;;;;;;;3.63;1.40;;;10.10;99.90;;;;;;5016846;28;20448;-86
2024/01/03 01:37:01;;;;;;;6.60;1.40;;;10.10;99.90;;;;;;5015593;28;20440;-87
2024/01/03 01:39:31;;;;;;;3.50;1.70;;;10.10;99.90;;;;;;5015050;28;20456;-86
2024/01/03 01:41:59;;;;;;;3.53;1.60;;;10.10;99.90;;;;;;5016967;28;20436;-87
2024/01/03 01:44:27;;;;;;;4.63;1.40;;;10.00;99.90;;;;;;5015301;28;20911;-87
2024/01/03 01:46:57;;;;;;;4.63;1.50;;;10.00;99.90;;;;;;5015832;28;20486;-87
2024/01/03 01:49:26;;;;;;;4.63;1.27;;;10.00;99.90;;;;;;5015958;28;20506;-87
2024/01/03 01:51:55;;;;;;;5.23;1.60;;;10.00;99.90;;;;;;5015158;28;20447;-86
2024/01/03 01:54:24;;;;;;;1.80;0.97;;;10.00;99.90;;;;;;5015593;28;20468;-86
2024/01/03 01:56:54;;;;;;;2.70;1.03;;;10.00;99.90;;;;;;5014984;28;20444;-87
2024/01/03 01:59:23;;;;;;;1.97;1.10;;;10.00;99.90;;;;;;5015329;28;20448;-87
2024/01/03 02:01:52;;;;;;;2.47;1.23;;;10.00;99.90;;;;;;5014963;28;20949;-86
2024/01/03 02:04:21;;;;;;;3.73;1.20;;;10.00;99.90;;;;;;5014907;28;20476;-85
2024/01/03 02:06:50;;;;;;;3.63;0.90;;;10.00;99.90;;;;;;5015166;28;20506;-87
2024/01/03 02:09:18;;;;;;;2.77;0.90;;;9.90;99.90;;;;;;5014691;28;20459;-85
2024/01/03 02:11:48;;;;;;;2.43;1.00;;;9.90;99.90;;;;;;5014736;28;20520;-87
2024/01/03 02:14:18;;;;;;;2.20;1.00;;;9.90;99.90;;;;;;5015084;28;20832;-87
2024/01/03 02:16:46;;;;;;;3.83;1.00;;;9.90;99.90;;;;;;5015092;28;20484;-87
2024/01/03 02:19:14;;;;;;;2.87;1.20;;;9.90;99.90;;;;;;5014390;28;20484;-87
2024/01/03 02:21:46;;;;;;;3.73;1.30;;;9.90;99.90;;;;;;5014175;28;20440;-87
2024/01/03 02:24:16;;;;;;;2.00;1.00;;;9.80;99.90;;;;;;5014115;28;20476;-87
2024/01/03 02:26:45;;;;;;;1.90;0.93;;;9.80;99.90;;;;;;5014071;28;20486;-87
2024/01/03 02:29:13;;;;;;;2.97;1.13;;;9.80;99.90;;;;;;5014113;28;20506;-87
2024/01/03 02:31:41;;;;;;;3.27;1.10;;;9.70;99.90;;;;;;5014312;28;20454;-87
2024/01/03 02:34:10;;;;;;;3.10;0.90;;;9.70;99.90;;;;;;5014054;28;20894;-86
2024/01/03 02:36:38;;;;;;;2.80;1.00;;;9.70;99.90;;;;;;5013719;28;20440;-87
2024/01/03 02:39:08;;;;;;;4.83;1.30;;;9.60;99.90;;;;;;5013729;28;20452;-87
2024/01/03 02:41:36;;;;;;;3.13;0.90;;;9.60;99.90;;;;;;5013744;28;20459;-87
2024/01/03 02:44:05;;;;;;;2.10;1.00;;;9.60;99.90;;;;;;5013352;28;21027;-87
2024/01/03 02:46:33;;;;;;;3.73;1.60;;;9.50;99.90;;;;;;5013350;28;20471;-87
2024/01/03 02:49:02;;;;;;;2.40;1.20;;;9.50;99.90;;;;;;5014937;28;20479;-87
2024/01/03 02:51:31;;;;;;;4.13;1.40;;;9.50;99.90;;;;;;5013554;28;20498;-87
2024/01/03 02:54:00;;;;;;;2.13;1.00;;;9.50;99.90;;;;;;5013328;28;20474;-87
2024/01/03 02:56:29;;;;;;;3.37;1.10;;;9.50;99.90;;;;;;5013376;28;20870;-88
2024/01/03 02:58:58;;;;;;;3.20;1.30;;;9.40;99.90;;;;;;5013259;28;20995;-87
2024/01/03 03:01:26;;;;;;;3.90;1.10;;;9.40;99.90;;;;;;5013345;28;20474;-87
2024/01/03 03:03:55;;;;;;;3.30;1.00;;;9.40;99.90;;;;;;5014150;28;20467;-87
2024/01/03 03:06:23;;;;;;;2.80;1.07;;;9.40;99.90;;;;;;5013272;28;20526;-88
2024/01/03 03:08:52;;;;;;;3.10;1.07;;;9.40;99.90;;;;;;5012791;28;20451;-87
2024/01/03 03:11:41;;;;;;;4.40;1.50;;;9.40;99.90;;;;;;5013466;28;20539;-88
2024/01/03 03:14:11;;;;;;;3.03;1.00;;;9.30;99.90;;;;;;5012862;28;20467;-87
2024/01/03 03:16:39;;;;;;;4.23;1.50;;;9.30;99.90;;;;;;5012846;28;20463;-87
2024/01/03 03:19:07;;;;;;;3.10;1.57;;;9.30;99.90;;;;;;5013107;28;20452;-86
2024/01/03 03:21:36;;;;;;;2.63;1.00;;;9.30;99.90;;;;;;5012921;28;20466;-87
2024/01/03 03:24:05;;;;;;;5.40;1.17;;;9.30;99.90;;;;;;5012764;28;20475;-87
2024/01/03 03:26:33;;;;;;;3.40;1.20;;;9.30;99.90;;;;;;5012669;28;20479;-87
2024/01/03 03:29:03;;;;;;;3.33;1.00;;;9.30;99.90;;;;;;5012710;28;20861;-87
2024/01/03 03:31:31;;;;;;;2.73;1.10;;;9.30;99.90;;;;;;5012707;28;20456;-86
2024/01/03 03:34:00;;;;;;;1.40;0.93;;;9.30;99.90;;;;;;5012660;28;20472;-88
2024/01/03 03:36:28;;;;;;;2.30;1.00;;;9.30;99.90;;;;;;5012651;28;20456;-87
2024/01/03 03:38:57;;;;;;;2.40;1.00;;;9.30;99.90;;;;;;5014118;28;20455;-87
2024/01/03 03:41:25;;;;;;;2.90;0.70;;;9.30;99.90;;;;;;5016962;28;20478;-86
2024/01/03 03:43:53;;;;;;;1.97;0.97;;;9.30;99.90;;;;;;5017046;28;20973;-88
2024/01/03 03:46:23;;;;;;;2.37;0.80;;;9.30;99.90;;;;;;5017773;28;20467;-87
2024/01/03 03:48:52;;;;;;;4.40;0.90;;;9.30;99.90;;;;;;5015025;28;20459;-88
2024/01/03 03:51:20;;;;;;;2.47;0.80;;;9.30;99.90;;;;;;5018487;28;20439;-88
2024/01/03 03:53:48;;;;;;;1.60;0.67;;;9.30;99.90;;;;;;5017271;28;20528;-87
2024/01/03 03:56:23;;;;;;;2.50;0.80;;;9.30;99.90;;;;;;5017526;28;20459;-88
2024/01/03 03:58:52;;;;;;;1.67;0.70;;;9.30;99.90;;;;;;5016673;28;20447;-88
2024/01/03 04:01:20;;;;;;;1.93;0.70;;;9.30;99.90;;;;;;5016465;28;20451;-88
2024/01/03 04:03:50;;;;;;;3.50;0.80;;;9.30;99.90;;;;;;5016487;28;20471;-88
2024/01/03 04:06:19;;;;;;;2.73;1.00;;;9.30;99.90;;;;;;5016549;28;20542;-88
2024/01/03 04:08:48;;;;;;;2.90;0.90;;;9.20;99.90;;;;;;5018015;28;20978;-88
2024/01/03 04:11:17;;;;;;;4.10;1.03;;;9.20;99.90;;;;;;5016292;28;20462;-88
2024/01/03 04:13:46;;;;;;;1.70;0.77;;;9.20;99.90;;;;;;5016259;28;20467;-88
2024/01/03 04:16:13;;;;;;;2.77;1.00;;;9.20;99.90;;;;;;5016259;28;20448;-88
2024/01/03 04:18:41;;;;;;;3.33;1.07;;;9.20;99.90;;;;;;5016213;28;20455;-88
2024/01/03 04:21:12;;;;;;;3.83;2.00;;;9.20;99.90;;;;;;5016009;28;20509;-88
2024/01/03 04:23:40;;;;;;;3.37;1.63;;;9.20;99.90;;;;;;5016057;28;20459;-88
2024/01/03 04:26:08;;;;;;;2.70;1.33;;;9.20;99.90;;;;;;5016217;28;20464;-88
2024/01/03 04:28:37;;;;;;;6.47;2.20;;;9.20;99.90;;;;;;5016329;28;20439;-88
2024/01/03 04:31:05;;;;;;;3.20;1.70;;;9.20;99.90;;;;;;5016159;28;20463;-88
2024/01/03 04:33:34;;;;;;;6.23;2.37;;;9.20;99.90;;;;;;5015920;28;20455;-88
2024/01/03 04:36:02;;;;;;;6.30;2.00;;;9.20;99.90;;;;;;5015911;28;21005;-88
2024/01/03 04:38:32;;;;;;;6.43;2.50;;;9.20;99.90;;;;;;5015813;28;20443;-88
2024/01/03 04:41:01;;;;;;;9.63;2.73;;;9.20;99.90;;;;;;5015766;28;20459;-88
2024/01/03 04:43:29;;;;;;;7.87;2.90;;;9.20;99.90;;;;;;5016513;28;20444;-88
2024/01/03 04:45:58;;;;;;;6.13;2.80;;;9.20;99.90;;;;;;5015503;28;20988;-88
2024/01/03 04:48:26;;;;;;;12.93;2.90;;;9.20;99.90;;;;;;5015527;28;20452;-88
2024/01/03 04:50:54;;;;;;;6.33;3.23;;;9.20;99.90;;;;;;5015720;28;20458;-88
2024/01/03 04:53:23;;;;;;;9.70;3.10;;;9.20;99.90;;;;;;5015790;28;20444;-88
2024/01/03 04:55:53;;;;;;;8.50;2.67;;;9.20;99.90;;;;;;5015459;28;20459;-88
2024/01/03 04:58:21;;;;;;;12.43;3.60;;;9.20;99.90;;;;;;5015528;28;20513;-89
2024/01/03 05:00:50;;;;;;;10.03;3.50;;;9.20;99.90;;;;;;5015213;28;20452;-88
2024/01/03 05:03:20;;;;;;;9.00;3.20;;;9.20;99.90;;;;;;5015594;28;20447;-89
2024/01/03 05:05:49;;;;;;;7.47;3.03;;;9.20;99.90;;;;;;5015701;28;20447;-88
2024/01/03 05:08:17;;;;;;;12.50;3.83;;;9.20;99.90;;;;;;5015521;28;20550;-88
2024/01/03 05:10:46;;;;;;;10.37;3.53;;;9.20;99.90;;;;;;5015405;28;20507;-89
2024/01/03 05:13:16;;;;;;;10.90;3.23;;;9.20;99.90;;;;;;5015602;28;20451;-88
2024/01/03 05:15:44;;;;;;;13.63;4.37;;;9.20;99.90;;;;;;5015425;28;20464;-88
2024/01/03 05:18:12;;;;;;;11.57;3.17;;;9.20;99.90;;;;;;5015400;28;20567;-88
2024/01/03 05:20:41;;;;;;;12.30;3.90;;;9.20;99.90;;;;;;5015439;28;20448;-88
2024/01/03 05:23:10;;;;;;;11.03;3.77;;;9.20;99.90;;;;;;5015388;28;20510;-88
2024/01/03 05:25:38;;;;;;;15.20;3.83;;;9.20;99.90;;;;;;5015289;28;20491;-88
2024/01/03 05:28:06;;;;;;;7.10;3.43;;;9.20;99.90;;;;;;5015383;28;20479;-88
2024/01/03 05:30:37;;;;;;;10.50;3.57;;;9.20;99.90;;;;;;5015295;28;20510;-88
2024/01/03 05:33:05;;;;;;;12.60;3.70;;;9.20;99.90;;;;;;5016457;28;20432;-88
2024/01/03 05:35:34;;;;;;;8.80;2.70;;;9.20;99.90;;;;;;5015223;28;20468;-88
2024/01/03 05:38:02;;;;;;;7.03;2.80;;;9.20;99.90;;;;;;5014992;28;20460;-88
2024/01/03 05:40:31;;;;;;;7.83;2.87;;;9.20;99.90;;;;;;5014937;28;20498;-87
2024/01/03 05:42:59;;;;;;;10.23;2.80;;;9.30;99.90;;;;;;5014983;28;20949;-88
2024/01/03 05:45:27;;;;;;;8.93;2.73;;;9.30;99.90;;;;;;5014517;28;20566;-88
2024/01/03 05:47:57;;;;;;;10.10;2.47;;;9.30;99.90;;;;;;5014330;28;20475;-88
2024/01/03 05:50:26;;;;;;;11.50;3.07;;;9.30;99.90;;;;;;5014217;28;20459;-89
2024/01/03 05:52:54;;;;;;;8.47;2.60;;;9.30;99.90;;;;;;5014293;28;20835;-89
2024/01/03 05:55:23;;;;;;;9.73;2.53;;;9.30;99.90;;;;;;5014419;28;20468;-89
2024/01/03 05:57:51;;;;;;;6.73;2.70;;;9.40;99.90;;;;;;5014129;28;20548;-89
2024/01/03 06:00:20;;;;;;;8.73;2.33;;;9.30;99.90;;;;;;5014947;28;20846;-88
2024/01/03 06:02:49;;;;;;;6.10;1.70;;;9.30;99.90;;;;;;5014130;28;20448;-88
2024/01/03 06:05:19;;;;;;;6.37;2.40;;;9.30;99.90;;;;;;5014077;28;20468;-88
2024/01/03 06:07:47;;;;;;;5.70;2.50;;;9.30;99.90;;;;;;5013842;28;20468;-88
2024/01/03 06:10:16;;;;;;;8.90;3.40;;;9.30;99.90;;;;;;5014038;28;20450;-88
2024/01/03 06:12:44;;;;;;;12.67;2.60;;;9.30;99.90;;;;;;5013440;28;20968;-87
2024/01/03 06:15:12;;;;;;;7.50;2.40;;;9.30;99.90;;;;;;5013784;28;20468;-87
2024/01/03 06:17:41;;;;;;;5.03;2.13;;;9.30;99.90;;;;;;5014987;28;20524;-87
2024/01/03 06:20:10;;;;;;;4.90;2.10;;;9.30;99.90;;;;;;5014141;28;20482;-87
2024/01/03 06:22:40;;;;;;;9.37;2.20;;;9.30;99.90;;;;;;5013903;28;20456;-87
2024/01/03 06:25:08;;;;;;;8.50;2.30;;;9.30;99.90;;;;;;5013760;28;21070;-87
2024/01/03 06:27:37;;;;;;;8.17;2.47;;;9.30;99.90;;;;;;5013766;28;20472;-87
2024/01/03 06:30:06;;;;;;;9.17;3.10;;;9.30;99.90;;;;;;5014552;28;20502;-86
2024/01/03 06:32:35;;;;;;;5.40;2.47;;;9.30;99.90;;;;;;5013652;28;20448;-86
2024/01/03 06:35:03;;;;;;;7.10;2.20;;;9.30;99.90;;;;;;5013497;28;20479;-87
2024/01/03 06:37:31;;;;;;;7.40;2.43;;;9.30;99.90;;;;;;5013428;28;20949;-87
2024/01/03 06:40:01;;;;;;;6.00;2.43;;;9.40;99.90;;;;;;5013546;28;20460;-86
2024/01/03 06:42:29;;;;;;;9.20;3.10;;;9.40;99.90;;;;;;5013510;28;20450;-88
2024/01/03 06:44:58;;;;;;;8.67;2.57;;;9.40;99.90;;;;;;5013488;28;20811;-88
2024/01/03 06:47:26;;;;;;;5.23;2.30;;;9.40;99.90;;;;;;5013667;28;20475;-88
2024/01/03 06:49:54;;;;;;;10.20;2.80;;;9.40;99.90;;;;;;5014956;28;20451;-88
2024/01/03 06:52:23;;;;;;;11.53;3.30;;;9.50;99.90;;;;;;5013806;28;20460;-88
2024/01/03 06:54:51;;;;;;;8.30;2.40;;;9.50;99.90;;;;;;5013535;28;20571;-88
2024/01/03 06:57:21;;;;;;;9.40;3.30;;;9.50;99.90;;;;;;5013332;28;20965;-89
2024/01/03 06:59:50;;;;;;;10.87;3.47;;;9.50;99.90;;;;;;5013480;28;20502;-88
2024/01/03 07:02:18;;;;;;;13.90;3.37;;;9.50;99.90;;;;;;5013615;28;20549;-88
2024/01/03 07:04:47;;;;;;;7.93;2.43;;;9.50;99.90;;;;;;5014684;28;20451;-88
2024/01/03 07:07:17;;;;;;;7.80;3.10;;;9.50;99.90;;;;;;5014820;28;20852;-88
2024/01/03 07:09:45;;;;;;;8.70;3.90;;;9.50;99.90;;;;;;5015855;28;20451;-89
2024/01/03 07:12:18;;;;;;;10.70;3.20;;;9.50;99.90;;;;;;5017860;28;20448;-88
2024/01/03 07:14:48;;;;;;;12.40;3.40;;;9.50;99.90;;;;;;5019214;28;20455;-87
2024/01/03 07:17:17;;;;;;;11.00;2.90;;;9.50;99.90;;;;;;5018766;28;20455;-88
2024/01/03 07:19:45;;;;;;;6.27;2.27;;;9.60;99.90;;;;;;5018361;28;20816;-87
2024/01/03 07:22:14;;;;;;;9.20;3.30;;;9.60;99.90;;;;;;5018864;28;20831;-87
2024/01/03 07:24:42;;;;;;;7.73;2.53;;;9.60;99.90;;;;;;5014987;28;20876;-87
2024/01/03 07:27:11;;;;;;;7.53;2.30;;;9.60;99.90;;;;;;5013862;28;20478;-87
2024/01/03 07:29:39;;;;;;;7.40;2.80;;;9.60;99.90;;;;;;5014015;28;20510;-87
2024/01/03 07:32:09;;;;;;;8.13;2.80;;;9.60;99.90;;;;;;5013613;28;20460;-87
2024/01/03 07:34:37;;;;;;;9.53;3.20;;;9.60;99.90;;;;;;5014417;28;20467;-87
2024/01/03 07:37:06;;;;;;;7.40;2.60;;;9.60;99.90;;;;;;5013890;28;20456;-87
2024/01/03 07:39:34;;;;;;;10.57;3.90;;;9.60;99.90;;;;;;5014259;28;20518;-88
2024/01/03 07:42:03;;;;;;;7.97;3.33;;;9.60;99.90;;;;;;5013926;28;20443;-87
2024/01/03 07:44:35;;;;;;;9.00;3.33;;;9.60;99.90;;;;;;5013877;28;20479;-87
2024/01/03 07:47:04;;;;;;;11.77;3.83;;;9.60;99.90;;;;;;5012852;28;20450;-87
2024/01/03 07:49:34;;;;;;;10.63;4.57;;;9.60;99.90;;;;;;5012891;28;20517;-87
2024/01/03 07:52:02;;;;;;;13.90;4.87;;;9.60;99.90;;;;;;5013121;28;20456;-87
2024/01/03 07:54:31;;;;;;;12.67;5.13;;;9.60;99.90;;;;;;5013436;28;20470;-87
2024/01/03 07:57:01;;;;;;;9.40;3.83;;;9.50;99.90;;;;;;5013078;28;20456;-87
2024/01/03 07:59:29;;;;;;;9.50;3.40;;;9.50;99.90;;;;;;5013053;28;20443;-86
2024/01/03 08:01:58;;;;;;;16.20;3.77;;;9.50;99.90;;;;;;5015686;28;20463;-87
2024/01/03 08:04:27;;;;;;;11.30;4.63;;;9.50;99.90;;;;;;5017020;28;20510;-87
2024/01/03 08:06:56;;;;;;;9.63;3.20;;;9.50;99.90;;;;;;5016747;28;20436;-87
2024/01/03 08:09:25;;;;;;;10.40;3.53;;;9.50;99.90;;;;;;5015869;28;20479;-87
2024/01/03 08:11:53;;;;;;;11.03;3.80;;;9.50;99.90;;;;;;5015688;28;20471;-87
2024/01/03 08:14:23;;;;;;;13.80;3.83;;;9.50;99.90;;;;;;5016404;28;20474;-87
2024/01/03 08:16:52;;;;;;;14.77;4.33;;;9.50;99.90;;;;;;5029561;28;20515;-87
2024/01/03 08:19:20;;;;;;;11.00;3.30;;;9.50;99.90;;;;;;5031861;28;20440;-87
2024/01/03 08:21:49;;;;;;;12.97;3.97;;;9.50;99.90;;;;;;5032541;28;20452;-87
2024/01/03 08:24:19;;;;;;;12.43;3.97;;;9.50;99.90;;;;;;5030125;28;20498;-87
2024/01/03 08:26:47;;;;;;;12.57;3.93;;;9.50;99.90;;;;;;5030650;28;20486;-87
2024/01/03 08:29:16;;;;;;;14.57;4.30;;;9.50;99.90;;;;;;5030501;28;20498;-87
2024/01/03 08:31:47;;;;;;;12.90;4.00;;;9.50;99.90;;;;;;5026130;28;20976;-87
2024/01/03 08:34:15;;;;;;;16.10;4.40;;;9.50;99.90;;;;;;5029606;28;20539;-87
2024/01/03 08:36:46;;;;;;;12.27;4.30;;;9.50;99.90;;;;;;5034497;28;20452;-87
2024/01/03 08:39:15;;;;;;;12.77;4.70;;;9.60;99.90;;;;;;5034636;28;20439;-87
2024/01/03 08:41:47;;;;;;;12.23;4.10;;;9.60;99.90;;;;;;5033960;28;20455;-87
2024/01/03 08:44:16;;;;;;;11.10;3.20;;;9.60;99.90;;;;;;5024687;28;20472;-87
2024/01/03 08:46:45;;;;;;;10.10;3.80;;;9.60;99.90;;;;;;5017384;28;20558;-87
2024/01/03 08:49:14;;;;;;;11.50;4.03;;;9.60;99.90;;;;;;5017005;28;20972;-87
2024/01/03 08:51:45;;;;;;;11.93;4.20;;;9.70;99.90;;;;;;5016840;28;20451;-87
2024/01/03 08:54:14;;;;;;;10.30;3.50;;;9.70;99.90;;;;;;5016353;28;20481;-87
2024/01/03 08:56:44;;;;;;;10.80;3.67;;;9.70;99.90;;;;;;5016682;28;20450;-86
2024/01/03 08:59:13;;;;;;;11.90;3.47;;;9.80;99.90;;;;;;5017372;28;20933;-87
2024/01/03 09:01:41;;;;;;;10.67;3.50;;;9.80;99.90;;;;;;5016291;28;20455;-87
2024/01/03 09:04:10;;;;;;;11.53;3.30;;;9.90;99.90;;;;;;5015783;28;20480;-87
2024/01/03 09:06:38;;;;;;;8.73;3.40;;;9.90;99.90;;;;;;5015925;28;20458;-87
2024/01/03 09:09:07;;;;;;;7.63;3.13;;;9.90;99.90;;;;;;5016852;28;20568;-86
2024/01/03 09:11:36;;;;;;;9.80;4.00;;;9.90;99.90;;;;;;5015861;28;20454;-87
2024/01/03 09:14:06;;;;;;;10.70;3.37;;;10.00;99.90;;;;;;5015593;28;20511;-87
2024/01/03 09:16:35;;;;;;;10.60;4.00;;;10.00;99.90;;;;;;5016194;28;20822;-87
2024/01/03 09:19:03;;;;;;;11.77;4.37;;;10.00;99.90;;;;;;5015459;28;20440;-87
2024/01/03 09:21:36;;;;;;;12.50;4.13;;;10.00;99.90;;;;;;5015457;28;20807;-87
2024/01/03 09:24:05;;;;;;;11.83;3.60;;;10.00;99.90;;;;;;5016434;28;20457;-87
2024/01/03 09:26:33;;;;;;;16.70;4.70;;;10.00;99.90;;;;;;5015425;28;20452;-87
2024/01/03 09:29:02;;;;;;;10.50;3.50;;;10.00;99.90;;;;;;5015146;28;20511;-87
2024/01/03 09:31:33;;;;;;;12.20;4.00;;;10.10;99.90;;;;;;5015233;28;20452;-87
2024/01/03 09:34:01;;;;;;;12.50;3.83;;;10.10;99.90;;;;;;5015047;28;20479;-87
2024/01/03 09:36:30;;;;;;;14.87;3.30;;;10.10;99.90;;;;;;5015381;28;20440;-87
2024/01/03 09:38:58;;;;;;;11.30;3.70;;;10.10;99.90;;;;;;5015082;28;20463;-88
2024/01/03 09:41:27;;;;;;;14.47;3.97;;;10.10;99.90;;;;;;5017743;28;20960;-87
2024/01/03 09:43:56;;;;;;;12.63;4.20;;;10.20;99.90;;;;;;5016810;28;20486;-87
2024/01/03 09:46:25;;;;;;;9.63;3.57;;;10.20;99.90;;;;;;5019406;28;20531;-87
2024/01/03 09:48:55;;;;;;;12.23;3.53;;;10.20;99.90;;;;;;5018450;28;20468;-87
2024/01/03 09:51:23;;;;;;;9.70;3.90;;;10.20;99.90;;;;;;5017020;28;20447;-87
2024/01/03 09:53:54;;;;;;;13.27;4.30;;;10.30;99.90;;;;;;5016839;28;20574;-87
2024/01/03 09:56:23;;;;;;;10.83;3.87;;;10.30;99.90;;;;;;5016973;28;20440;-87
2024/01/03 09:58:51;;;;;;;9.33;3.30;;;10.30;99.90;;;;;;5016536;28;20558;-87
2024/01/03 10:01:20;;;;;;;13.80;4.37;;;10.30;99.90;;;;;;5016829;28;20456;-87
2024/01/03 10:03:49;;;;;;;13.53;4.30;;;10.30;99.90;;;;;;5018343;28;20522;-87
2024/01/03 10:06:19;;;;;;;10.90;3.37;;;10.30;99.90;;;;;;5017182;28;20502;-87
2024/01/03 10:08:59;;;;;;;11.90;3.73;;;10.30;99.90;;;;;;5016534;28;20479;-87
2024/01/03 10:11:28;;;;;;;8.83;3.40;;;10.30;99.90;;;;;;5016774;28;20444;-87
2024/01/03 10:14:13;;;;;;;10.60;4.20;;;10.30;99.90;;;;;;5016647;28;20464;-87
2024/01/03 10:16:43;;;;;;;8.20;3.07;;;10.30;99.90;;;;;;5016238;28;20452;-87
2024/01/03 10:19:14;;;;;;;10.57;4.00;;;10.30;99.90;;;;;;5016248;28;20483;-87
2024/01/03 10:21:54;;;;;;;8.40;3.40;;;10.20;99.90;;;;;;5016068;28;20440;-87
2024/01/03 10:24:24;;;;;;;6.73;2.90;;;10.30;99.90;;;;;;5016383;28;20483;-87
2024/01/03 10:26:55;;;;;;;9.60;3.67;;;10.20;99.90;;;;;;5016393;28;20464;-87
2024/01/03 10:29:24;;;;;;;8.33;4.13;;;10.20;99.90;;;;;;5017125;28;20472;-87
2024/01/03 10:31:53;;;;;;;7.93;3.03;;;10.20;99.90;;;;;;5018829;28;20498;-87
2024/01/03 10:34:25;;;;;;;8.63;3.40;;;10.20;99.90;;;;;;5015899;28;20824;-87
2024/01/03 10:36:57;;;;;;;9.07;3.20;;;10.20;99.90;;;;;;5016478;28;20484;-87
2024/01/03 10:39:26;;;;;;;6.57;2.80;;;10.20;99.90;;;;;;5016293;28;20944;-87
2024/01/03 10:41:55;;;;;;;8.87;2.80;;;10.20;99.90;;;;;;5016055;28;20522;-86
2024/01/03 10:44:23;;;;;;;11.70;3.20;;;10.20;99.90;;;;;;5016302;28;20471;-87
2024/01/03 10:46:54;;;;;;;9.90;3.00;;;10.20;99.90;;;;;;5015972;28;20538;-87
2024/01/03 10:49:23;;;;;;;8.70;4.17;;;10.30;99.90;;;;;;5016227;28;20478;-87
2024/01/03 10:52:01;;;;;;;8.10;2.73;;;10.30;99.90;;;;;;5015914;28;20873;-87
2024/01/03 10:54:41;;;;;;;7.63;3.13;;;10.30;99.90;;;;;;5015782;28;20463;-87
2024/01/03 10:57:12;;;;;;;6.97;2.70;;;10.30;99.90;;;;;;5015647;28;20810;-87
2024/01/03 10:59:48;;;;;;;7.93;3.10;;;10.30;99.90;;;;;;5015655;28;20451;-87
2024/01/03 11:02:24;;;;;;;6.10;2.60;;;10.40;99.90;;;;;;5016146;28;20510;-87
2024/01/03 11:05:01;;;;;;;7.67;2.70;;;10.30;99.90;;;;;;5016155;28;20463;-87
2024/01/03 11:07:39;;;;;;;10.23;2.93;;;10.30;99.90;;;;;;5016828;28;21048;-86
2024/01/03 11:10:08;;;;;;;7.00;2.27;;;10.30;99.90;;;;;;5015854;28;20639;-87
2024/01/03 11:12:36;;;;;;;11.83;3.17;;;10.30;99.90;;;;;;5015186;28;20452;-87
2024/01/03 11:15:22;;;;;;;9.60;3.53;;;10.30;99.90;;;;;;5015130;28;21035;-87
2024/01/03 11:18:09;;;;;;;6.90;2.43;;;10.30;99.90;;;;;;5017158;28;20866;-87
2024/01/03 11:20:38;;;;;;;7.03;3.10;;;10.30;99.90;;;;;;5016087;28;20444;-86
2024/01/03 11:23:08;;;;;;;6.57;2.70;;;10.30;99.90;;;;;;5015559;28;20510;-87
2024/01/03 11:25:48;;;;;;;9.27;3.23;;;10.30;99.90;;;;;;5014983;28;20495;-87
2024/01/03 11:28:32;;;;;;;6.83;3.10;;;10.30;99.90;;;;;;5015336;28;20460;-87
2024/01/03 11:31:01;;;;;;;10.23;3.27;;;10.30;99.90;;;;;;5015518;28;20890;-87
2024/01/03 11:33:31;;;;;;;8.50;2.70;;;10.30;99.90;;;;;;5024216;28;20775;-86
2024/01/03 11:36:01;;;;;;;4.97;2.20;;;10.30;99.90;;;;;;5018180;28;20462;-87
2024/01/03 11:38:40;;;;;;;4.97;2.30;;;10.30;99.90;;;;;;5023092;28;20455;-86
2024/01/03 11:41:09;;;;;;;8.23;2.90;;;10.40;99.90;;;;;;5014878;28;20814;-87
2024/01/03 11:43:37;;;;;;;4.83;2.27;;;10.40;99.90;;;;;;5015008;28;20498;-86
2024/01/03 11:46:10;;;;;;;5.87;2.17;;;10.40;99.90;;;;;;5015359;28;20461;-86
2024/01/03 11:48:38;;;;;;;6.17;2.40;;;10.40;99.90;;;;;;5014416;28;20459;-86
2024/01/03 11:51:22;;;;;;;5.47;2.13;;;10.50;99.90;;;;;;5014448;28;21007;-86
2024/01/03 11:53:52;;;;;;;5.87;2.60;;;10.40;99.90;;;;;;5016097;28;20518;-86
2024/01/03 11:56:28;;;;;;;6.27;2.10;;;10.40;99.90;;;;;;5013917;28;20487;-86
2024/01/03 11:58:57;;;;;;;9.80;2.70;;;10.40;99.90;;;;;;5014004;28;20454;-86
2024/01/03 12:01:26;;;;;;;7.43;3.07;;;10.40;99.90;;;;;;5014254;28;20449;-87
2024/01/03 12:04:08;;;;;;;6.77;2.60;;;10.40;99.90;;;;;;5013834;28;20563;-86
2024/01/03 12:06:37;;;;;;;5.17;2.53;;;10.50;99.90;;;;;;5013690;28;20843;-87
2024/01/03 12:09:07;;;;;;;7.93;2.50;;;10.50;99.90;;;;;;5014351;28;20462;-86
2024/01/03 12:11:36;;;;;;;6.00;2.47;;;10.50;99.90;;;;;;5017684;28;20570;-86
2024/01/03 12:14:05;;;;;;;5.13;3.30;;;10.50;99.90;;;;;;5017038;28;20518;-87
2024/01/03 12:16:33;;;;;;;6.00;2.60;;;10.50;99.90;;;;;;5017541;28;20451;-86
2024/01/03 12:19:06;;;;;;;7.03;2.60;;;10.60;99.90;;;;;;5016758;28;20537;-86
2024/01/03 12:21:35;;;;;;;5.77;2.40;;;10.60;99.90;;;;;;5017306;28;20451;-85
2024/01/03 12:24:03;;;;;;;3.60;2.07;;;10.60;99.90;;;;;;5017360;28;20467;-86
2024/01/03 12:26:33;;;;;;;8.53;2.50;;;10.60;99.90;;;;;;5016603;28;20459;-85
2024/01/03 12:29:01;;;;;;;7.17;2.53;;;10.60;99.90;;;;;;5016614;28;20451;-86
2024/01/03 12:31:30;;;;;;;6.20;2.87;;;10.60;99.90;;;;;;5017241;28;20468;-86
2024/01/03 12:34:04;;;;;;;12.30;2.83;;;10.60;99.90;;;;;;5016216;28;20467;-86
2024/01/03 12:36:33;;;;;;;7.30;2.67;;;10.60;99.90;;;;;;5016112;28;20526;-86
2024/01/03 12:39:02;;;;;;;7.10;2.60;;;10.60;99.90;;;;;;5016126;28;20447;-87
2024/01/03 12:41:31;;;;;;;6.40;2.70;;;10.60;99.90;;;;;;5019293;28;20532;-88
2024/01/03 12:44:00;;;;;;;8.80;2.97;;;10.50;99.90;;;;;;5020032;28;20482;-86
2024/01/03 12:46:28;;;;;;;6.10;2.40;;;10.50;99.90;;;;;;5021122;28;20513;-86
2024/01/03 12:48:57;;;;;;;9.10;3.20;;;10.50;99.90;;;;;;5022555;28;20486;-86
2024/01/03 12:51:25;;;;;;;7.73;2.90;;;10.50;99.90;;;;;;5021246;28;20526;-87
2024/01/03 12:54:04;;;;;;;7.70;2.83;;;10.50;99.90;;;;;;5020676;28;20460;-86
2024/01/03 12:56:32;;;;;;;5.90;2.47;;;10.50;99.90;;;;;;5020046;28;20487;-86
2024/01/03 12:59:02;;;;;;;6.37;2.90;;;10.50;99.90;;;;;;5023044;28;21035;-86
2024/01/03 13:01:30;;;;;;;8.57;3.20;;;10.50;99.90;;;;;;5020131;28;20459;-86
2024/01/03 13:03:58;;;;;;;5.93;2.40;;;10.40;99.90;;;;;;5020653;28;20472;-86